sensor_id;sensor_type;location;lat;lon;timestamp;P1;durP1;ratioP1;P2;durP2;ratioP2
10605;SDS011;5350;42.698;23.148;2023-07-02T00:01:59;5.28;;;3.97;;
10605;SDS011;5350;42.698;23.148;2023-07-02T00:04:26;5.25;;;4.25;;
10605;SDS011;5350;42.698;23.148;2023-07-02T00:06:52;5.50;;;4.35;;
10605;SDS011;5350;42.698;23.148;2023-07-02T00:09:21;6.30;;;4.82;;
10605;SDS011;5350;42.698;23.148;2023-07-02T00:11:47;7.63;;;5.03;;
10605;SDS011;5350;42.698;23.148;2023-07-02T00:14:14;8.50;;;5.32;;
10605;SDS011;5350;42.698;23.148;2023-07-02T00:16:42;12.23;;;5.68;;
10605;SDS011;5350;42.698;23.148;2023-07-02T00:19:10;7.95;;;5.53;;
10605;SDS011;5350;42.698;23.148;2023-07-02T00:21:37;4.95;;;4.13;;
10605;SDS011;5350;42.698;23.148;2023-07-02T00:24:05;6.10;;;4.85;;
10605;SDS011;5350;42.698;23.148;2023-07-02T00:26:33;7.50;;;5.40;;
10605;SDS011;5350;42.698;23.148;2023-07-02T00:29:00;6.43;;;4.97;;
10605;SDS011;5350;42.698;23.148;2023-07-02T00:31:29;8.90;;;4.75;;
10605;SDS011;5350;42.698;23.148;2023-07-02T00:33:55;9.18;;;5.00;;
10605;SDS011;5350;42.698;23.148;2023-07-02T00:36:22;10.10;;;6.18;;
10605;SDS011;5350;42.698;23.148;2023-07-02T00:38:49;6.25;;;5.07;;
10605;SDS011;5350;42.698;23.148;2023-07-02T00:41:16;8.65;;;5.43;;
10605;SDS011;5350;42.698;23.148;2023-07-02T00:43:44;6.95;;;5.38;;
10605;SDS011;5350;42.698;23.148;2023-07-02T00:46:11;9.10;;;5.90;;
10605;SDS011;5350;42.698;23.148;2023-07-02T00:48:43;7.53;;;6.00;;
10605;SDS011;5350;42.698;23.148;2023-07-02T00:51:10;7.70;;;5.45;;
10605;SDS011;5350;42.698;23.148;2023-07-02T00:53:39;7.43;;;5.13;;
10605;SDS011;5350;42.698;23.148;2023-07-02T00:56:06;7.22;;;4.70;;
10605;SDS011;5350;42.698;23.148;2023-07-02T00:58:33;7.47;;;5.38;;
10605;SDS011;5350;42.698;23.148;2023-07-02T01:01:05;9.77;;;6.30;;
10605;SDS011;5350;42.698;23.148;2023-07-02T01:03:32;8.95;;;5.38;;
10605;SDS011;5350;42.698;23.148;2023-07-02T01:06:02;8.95;;;5.53;;
10605;SDS011;5350;42.698;23.148;2023-07-02T01:08:29;9.60;;;5.50;;
10605;SDS011;5350;42.698;23.148;2023-07-02T01:10:56;7.22;;;5.13;;
10605;SDS011;5350;42.698;23.148;2023-07-02T01:13:25;9.10;;;5.28;;
10605;SDS011;5350;42.698;23.148;2023-07-02T01:15:52;7.50;;;5.90;;
10605;SDS011;5350;42.698;23.148;2023-07-02T01:18:20;8.35;;;5.32;;
10605;SDS011;5350;42.698;23.148;2023-07-02T01:20:49;8.55;;;5.88;;
10605;SDS011;5350;42.698;23.148;2023-07-02T01:23:18;6.82;;;5.50;;
10605;SDS011;5350;42.698;23.148;2023-07-02T01:25:45;8.05;;;5.80;;
10605;SDS011;5350;42.698;23.148;2023-07-02T01:28:12;9.05;;;6.22;;
10605;SDS011;5350;42.698;23.148;2023-07-02T01:30:39;9.40;;;5.88;;
10605;SDS011;5350;42.698;23.148;2023-07-02T01:33:06;10.75;;;6.88;;
10605;SDS011;5350;42.698;23.148;2023-07-02T01:35:33;8.38;;;6.57;;
10605;SDS011;5350;42.698;23.148;2023-07-02T01:38:01;10.32;;;6.22;;
10605;SDS011;5350;42.698;23.148;2023-07-02T01:40:28;9.45;;;6.13;;
10605;SDS011;5350;42.698;23.148;2023-07-02T01:42:54;9.48;;;5.85;;
10605;SDS011;5350;42.698;23.148;2023-07-02T01:45:21;8.52;;;6.55;;
10605;SDS011;5350;42.698;23.148;2023-07-02T01:47:48;7.43;;;5.65;;
10605;SDS011;5350;42.698;23.148;2023-07-02T01:50:15;7.88;;;5.82;;
10605;SDS011;5350;42.698;23.148;2023-07-02T01:52:41;9.50;;;6.28;;
10605;SDS011;5350;42.698;23.148;2023-07-02T01:55:10;10.23;;;6.18;;
10605;SDS011;5350;42.698;23.148;2023-07-02T01:57:36;8.60;;;5.60;;
10605;SDS011;5350;42.698;23.148;2023-07-02T02:00:03;10.20;;;6.00;;
10605;SDS011;5350;42.698;23.148;2023-07-02T02:02:31;8.60;;;6.18;;
10605;SDS011;5350;42.698;23.148;2023-07-02T02:04:58;8.07;;;6.15;;
10605;SDS011;5350;42.698;23.148;2023-07-02T02:07:25;8.13;;;6.18;;
10605;SDS011;5350;42.698;23.148;2023-07-02T02:09:52;9.02;;;5.82;;
10605;SDS011;5350;42.698;23.148;2023-07-02T02:12:20;9.05;;;6.15;;
10605;SDS011;5350;42.698;23.148;2023-07-02T02:14:46;9.63;;;6.13;;
10605;SDS011;5350;42.698;23.148;2023-07-02T02:17:13;10.45;;;6.93;;
10605;SDS011;5350;42.698;23.148;2023-07-02T02:19:40;8.73;;;6.13;;
10605;SDS011;5350;42.698;23.148;2023-07-02T02:22:07;8.20;;;6.55;;
10605;SDS011;5350;42.698;23.148;2023-07-02T02:24:33;6.13;;;4.63;;
10605;SDS011;5350;42.698;23.148;2023-07-02T02:27:00;5.18;;;4.60;;
10605;SDS011;5350;42.698;23.148;2023-07-02T02:29:28;6.13;;;4.10;;
10605;SDS011;5350;42.698;23.148;2023-07-02T02:31:55;6.43;;;4.25;;
10605;SDS011;5350;42.698;23.148;2023-07-02T02:34:21;5.13;;;3.60;;
10605;SDS011;5350;42.698;23.148;2023-07-02T02:36:48;4.80;;;3.50;;
10605;SDS011;5350;42.698;23.148;2023-07-02T02:39:15;4.55;;;3.58;;
10605;SDS011;5350;42.698;23.148;2023-07-02T02:41:42;3.45;;;2.60;;
10605;SDS011;5350;42.698;23.148;2023-07-02T02:44:08;2.63;;;2.35;;
10605;SDS011;5350;42.698;23.148;2023-07-02T03:46:08;7.05;;;5.72;;
10605;SDS011;5350;42.698;23.148;2023-07-02T03:48:35;11.07;;;7.03;;
10605;SDS011;5350;42.698;23.148;2023-07-02T03:51:02;9.55;;;6.63;;
10605;SDS011;5350;42.698;23.148;2023-07-02T03:53:29;10.45;;;7.72;;
10605;SDS011;5350;42.698;23.148;2023-07-02T03:55:56;11.88;;;8.25;;
10605;SDS011;5350;42.698;23.148;2023-07-02T03:58:22;9.80;;;7.05;;
10605;SDS011;5350;42.698;23.148;2023-07-02T04:00:49;9.52;;;7.43;;
10605;SDS011;5350;42.698;23.148;2023-07-02T04:03:17;10.30;;;8.20;;
10605;SDS011;5350;42.698;23.148;2023-07-02T04:05:44;11.27;;;8.25;;
10605;SDS011;5350;42.698;23.148;2023-07-02T04:08:11;14.15;;;7.85;;
10605;SDS011;5350;42.698;23.148;2023-07-02T04:10:37;9.10;;;7.22;;
10605;SDS011;5350;42.698;23.148;2023-07-02T04:13:04;11.07;;;7.18;;
10605;SDS011;5350;42.698;23.148;2023-07-02T04:15:31;9.50;;;7.78;;
10605;SDS011;5350;42.698;23.148;2023-07-02T04:17:58;9.90;;;7.10;;
10605;SDS011;5350;42.698;23.148;2023-07-02T04:20:26;9.00;;;7.22;;
10605;SDS011;5350;42.698;23.148;2023-07-02T04:22:53;12.77;;;8.27;;
10605;SDS011;5350;42.698;23.148;2023-07-02T04:25:20;13.90;;;8.02;;
10605;SDS011;5350;42.698;23.148;2023-07-02T04:27:47;8.73;;;6.95;;
10605;SDS011;5350;42.698;23.148;2023-07-02T04:30:14;8.48;;;6.55;;
10605;SDS011;5350;42.698;23.148;2023-07-02T04:32:41;7.80;;;6.55;;
10605;SDS011;5350;42.698;23.148;2023-07-02T04:35:08;11.05;;;7.20;;
10605;SDS011;5350;42.698;23.148;2023-07-02T04:37:37;9.73;;;6.55;;
10605;SDS011;5350;42.698;23.148;2023-07-02T04:40:05;11.25;;;7.22;;
10605;SDS011;5350;42.698;23.148;2023-07-02T04:42:34;11.48;;;6.40;;
10605;SDS011;5350;42.698;23.148;2023-07-02T04:45:03;8.13;;;6.00;;
10605;SDS011;5350;42.698;23.148;2023-07-02T04:47:30;8.15;;;6.25;;
10605;SDS011;5350;42.698;23.148;2023-07-02T04:49:56;8.63;;;7.20;;
10605;SDS011;5350;42.698;23.148;2023-07-02T04:52:23;10.88;;;6.72;;
10605;SDS011;5350;42.698;23.148;2023-07-02T04:54:51;9.50;;;6.78;;
10605;SDS011;5350;42.698;23.148;2023-07-02T04:57:18;10.50;;;6.47;;
10605;SDS011;5350;42.698;23.148;2023-07-02T04:59:45;9.07;;;6.63;;
10605;SDS011;5350;42.698;23.148;2023-07-02T05:02:12;8.85;;;7.05;;
10605;SDS011;5350;42.698;23.148;2023-07-02T05:04:39;9.57;;;5.68;;
10605;SDS011;5350;42.698;23.148;2023-07-02T05:07:06;7.95;;;5.88;;
10605;SDS011;5350;42.698;23.148;2023-07-02T05:09:33;8.38;;;6.47;;
10605;SDS011;5350;42.698;23.148;2023-07-02T05:12:01;9.23;;;6.38;;
10605;SDS011;5350;42.698;23.148;2023-07-02T05:14:28;11.80;;;6.75;;
10605;SDS011;5350;42.698;23.148;2023-07-02T05:16:54;10.30;;;6.20;;
10605;SDS011;5350;42.698;23.148;2023-07-02T05:19:21;8.50;;;6.15;;
10605;SDS011;5350;42.698;23.148;2023-07-02T05:21:48;8.82;;;6.25;;
10605;SDS011;5350;42.698;23.148;2023-07-02T05:24:15;9.18;;;5.55;;
10605;SDS011;5350;42.698;23.148;2023-07-02T05:26:41;8.18;;;5.13;;
10605;SDS011;5350;42.698;23.148;2023-07-02T05:29:09;6.32;;;4.95;;
10605;SDS011;5350;42.698;23.148;2023-07-02T05:31:36;7.80;;;5.07;;
10605;SDS011;5350;42.698;23.148;2023-07-02T05:34:03;5.80;;;4.78;;
10605;SDS011;5350;42.698;23.148;2023-07-02T05:36:29;8.25;;;4.72;;
10605;SDS011;5350;42.698;23.148;2023-07-02T05:38:56;5.57;;;4.50;;
10605;SDS011;5350;42.698;23.148;2023-07-02T05:41:23;8.35;;;4.93;;
10605;SDS011;5350;42.698;23.148;2023-07-02T05:43:50;7.43;;;3.97;;
10605;SDS011;5350;42.698;23.148;2023-07-02T05:46:18;9.13;;;5.00;;
10605;SDS011;5350;42.698;23.148;2023-07-02T05:48:44;7.65;;;4.00;;
10605;SDS011;5350;42.698;23.148;2023-07-02T05:51:11;6.45;;;4.50;;
10605;SDS011;5350;42.698;23.148;2023-07-02T05:53:38;8.00;;;5.05;;
10605;SDS011;5350;42.698;23.148;2023-07-02T05:56:04;7.30;;;4.90;;
10605;SDS011;5350;42.698;23.148;2023-07-02T05:58:31;7.93;;;5.18;;
10605;SDS011;5350;42.698;23.148;2023-07-02T06:00:58;8.02;;;5.35;;
10605;SDS011;5350;42.698;23.148;2023-07-02T06:03:27;6.93;;;5.43;;
10605;SDS011;5350;42.698;23.148;2023-07-02T06:05:54;7.97;;;5.03;;
10605;SDS011;5350;42.698;23.148;2023-07-02T06:08:20;10.35;;;6.53;;
10605;SDS011;5350;42.698;23.148;2023-07-02T06:10:47;8.02;;;5.88;;
10605;SDS011;5350;42.698;23.148;2023-07-02T06:13:14;9.13;;;5.93;;
10605;SDS011;5350;42.698;23.148;2023-07-02T06:15:41;7.15;;;5.35;;
10605;SDS011;5350;42.698;23.148;2023-07-02T06:18:08;6.90;;;5.80;;
10605;SDS011;5350;42.698;23.148;2023-07-02T06:20:37;7.53;;;5.60;;
10605;SDS011;5350;42.698;23.148;2023-07-02T06:23:03;12.10;;;5.75;;
10605;SDS011;5350;42.698;23.148;2023-07-02T06:25:30;8.63;;;5.25;;
10605;SDS011;5350;42.698;23.148;2023-07-02T06:27:57;6.72;;;4.93;;
10605;SDS011;5350;42.698;23.148;2023-07-02T06:30:24;7.72;;;4.57;;
10605;SDS011;5350;42.698;23.148;2023-07-02T06:32:50;10.20;;;5.20;;
10605;SDS011;5350;42.698;23.148;2023-07-02T06:35:17;6.47;;;4.55;;
10605;SDS011;5350;42.698;23.148;2023-07-02T06:37:46;6.30;;;4.78;;
10605;SDS011;5350;42.698;23.148;2023-07-02T06:40:13;8.63;;;4.53;;
10605;SDS011;5350;42.698;23.148;2023-07-02T06:42:40;5.15;;;3.67;;
10605;SDS011;5350;42.698;23.148;2023-07-02T06:45:07;5.05;;;3.50;;
10605;SDS011;5350;42.698;23.148;2023-07-02T06:47:34;7.63;;;3.40;;
10605;SDS011;5350;42.698;23.148;2023-07-02T06:50:01;5.50;;;3.00;;
10605;SDS011;5350;42.698;23.148;2023-07-02T06:52:27;6.45;;;3.58;;
10605;SDS011;5350;42.698;23.148;2023-07-02T06:54:56;5.70;;;3.20;;
10605;SDS011;5350;42.698;23.148;2023-07-02T06:57:23;4.10;;;3.47;;
10605;SDS011;5350;42.698;23.148;2023-07-02T06:59:50;3.83;;;3.38;;
10605;SDS011;5350;42.698;23.148;2023-07-02T07:02:16;6.20;;;3.00;;
10605;SDS011;5350;42.698;23.148;2023-07-02T07:04:43;6.07;;;3.00;;
10605;SDS011;5350;42.698;23.148;2023-07-02T07:07:10;5.30;;;3.47;;
10605;SDS011;5350;42.698;23.148;2023-07-02T07:09:36;9.60;;;4.03;;
10605;SDS011;5350;42.698;23.148;2023-07-02T07:12:05;8.15;;;3.80;;
10605;SDS011;5350;42.698;23.148;2023-07-02T07:14:32;5.75;;;3.92;;
10605;SDS011;5350;42.698;23.148;2023-07-02T07:16:59;5.63;;;4.10;;
10605;SDS011;5350;42.698;23.148;2023-07-02T07:19:26;7.10;;;3.55;;
10605;SDS011;5350;42.698;23.148;2023-07-02T07:21:52;6.18;;;3.13;;
10605;SDS011;5350;42.698;23.148;2023-07-02T07:24:19;8.27;;;3.17;;
10605;SDS011;5350;42.698;23.148;2023-07-02T07:26:46;10.48;;;3.45;;
10605;SDS011;5350;42.698;23.148;2023-07-02T07:29:14;6.68;;;3.22;;
10605;SDS011;5350;42.698;23.148;2023-07-02T07:31:41;5.55;;;3.20;;
10605;SDS011;5350;42.698;23.148;2023-07-02T07:34:08;5.80;;;3.47;;
10605;SDS011;5350;42.698;23.148;2023-07-02T07:36:36;8.00;;;3.50;;
10605;SDS011;5350;42.698;23.148;2023-07-02T07:39:03;4.38;;;3.53;;
10605;SDS011;5350;42.698;23.148;2023-07-02T07:41:30;4.57;;;2.67;;
10605;SDS011;5350;42.698;23.148;2023-07-02T07:43:57;4.28;;;2.95;;
10605;SDS011;5350;42.698;23.148;2023-07-02T07:46:27;6.55;;;3.67;;
10605;SDS011;5350;42.698;23.148;2023-07-02T07:49:01;6.90;;;3.33;;
10605;SDS011;5350;42.698;23.148;2023-07-02T07:51:28;5.90;;;3.53;;
10605;SDS011;5350;42.698;23.148;2023-07-02T07:53:54;6.75;;;3.10;;
10605;SDS011;5350;42.698;23.148;2023-07-02T07:56:21;9.55;;;4.25;;
10605;SDS011;5350;42.698;23.148;2023-07-02T07:58:48;7.80;;;3.58;;
10605;SDS011;5350;42.698;23.148;2023-07-02T08:01:15;9.32;;;3.70;;
10605;SDS011;5350;42.698;23.148;2023-07-02T08:03:45;8.55;;;3.50;;
10605;SDS011;5350;42.698;23.148;2023-07-02T08:06:11;11.23;;;3.25;;
10605;SDS011;5350;42.698;23.148;2023-07-02T08:08:38;6.03;;;3.55;;
10605;SDS011;5350;42.698;23.148;2023-07-02T08:11:05;7.97;;;4.30;;
10605;SDS011;5350;42.698;23.148;2023-07-02T08:13:31;7.75;;;3.63;;
10605;SDS011;5350;42.698;23.148;2023-07-02T08:15:58;7.43;;;3.33;;
10605;SDS011;5350;42.698;23.148;2023-07-02T08:18:25;6.88;;;3.45;;
10605;SDS011;5350;42.698;23.148;2023-07-02T08:20:53;5.00;;;3.63;;
10605;SDS011;5350;42.698;23.148;2023-07-02T08:23:20;13.45;;;4.03;;
10605;SDS011;5350;42.698;23.148;2023-07-02T08:25:46;9.07;;;4.28;;
10605;SDS011;5350;42.698;23.148;2023-07-02T08:28:13;6.75;;;3.45;;
10605;SDS011;5350;42.698;23.148;2023-07-02T08:30:40;4.63;;;3.10;;
10605;SDS011;5350;42.698;23.148;2023-07-02T08:33:07;6.57;;;3.78;;
10605;SDS011;5350;42.698;23.148;2023-07-02T08:35:33;7.80;;;3.22;;
10605;SDS011;5350;42.698;23.148;2023-07-02T08:38:01;4.15;;;2.90;;
10605;SDS011;5350;42.698;23.148;2023-07-02T08:40:28;3.45;;;2.50;;
10605;SDS011;5350;42.698;23.148;2023-07-02T08:42:55;4.78;;;3.28;;
10605;SDS011;5350;42.698;23.148;2023-07-02T08:45:22;4.78;;;2.72;;
10605;SDS011;5350;42.698;23.148;2023-07-02T08:47:50;3.05;;;2.75;;
10605;SDS011;5350;42.698;23.148;2023-07-02T08:50:20;4.50;;;2.92;;
10605;SDS011;5350;42.698;23.148;2023-07-02T08:52:47;3.22;;;2.75;;
10605;SDS011;5350;42.698;23.148;2023-07-02T08:55:15;2.47;;;2.08;;
10605;SDS011;5350;42.698;23.148;2023-07-02T08:57:42;3.25;;;2.58;;
10605;SDS011;5350;42.698;23.148;2023-07-02T09:00:16;5.50;;;2.60;;
10605;SDS011;5350;42.698;23.148;2023-07-02T09:02:43;3.33;;;2.70;;
10605;SDS011;5350;42.698;23.148;2023-07-02T09:05:11;4.00;;;2.80;;
10605;SDS011;5350;42.698;23.148;2023-07-02T09:07:45;3.13;;;2.60;;
10605;SDS011;5350;42.698;23.148;2023-07-02T09:10:12;5.20;;;3.15;;
10605;SDS011;5350;42.698;23.148;2023-07-02T09:13:01;4.70;;;3.08;;
10605;SDS011;5350;42.698;23.148;2023-07-02T09:15:29;3.85;;;3.33;;
10605;SDS011;5350;42.698;23.148;2023-07-02T09:18:01;5.25;;;3.40;;
10605;SDS011;5350;42.698;23.148;2023-07-02T09:20:32;5.43;;;3.25;;
10605;SDS011;5350;42.698;23.148;2023-07-02T09:22:59;5.68;;;2.92;;
10605;SDS011;5350;42.698;23.148;2023-07-02T09:25:33;4.03;;;3.10;;
10605;SDS011;5350;42.698;23.148;2023-07-02T09:28:13;4.05;;;2.90;;
10605;SDS011;5350;42.698;23.148;2023-07-02T09:30:48;3.88;;;3.17;;
10605;SDS011;5350;42.698;23.148;2023-07-02T09:33:15;3.00;;;2.50;;
10605;SDS011;5350;42.698;23.148;2023-07-02T09:35:42;4.55;;;3.30;;
10605;SDS011;5350;42.698;23.148;2023-07-02T09:38:09;4.70;;;3.40;;
10605;SDS011;5350;42.698;23.148;2023-07-02T09:40:36;4.47;;;3.13;;
10605;SDS011;5350;42.698;23.148;2023-07-02T09:43:10;4.20;;;3.33;;
10605;SDS011;5350;42.698;23.148;2023-07-02T09:45:37;4.43;;;3.40;;
10605;SDS011;5350;42.698;23.148;2023-07-02T09:48:07;6.88;;;4.50;;
10605;SDS011;5350;42.698;23.148;2023-07-02T09:50:36;4.18;;;2.60;;
10605;SDS011;5350;42.698;23.148;2023-07-02T09:53:03;5.85;;;3.33;;
10605;SDS011;5350;42.698;23.148;2023-07-02T09:55:30;7.65;;;4.90;;
10605;SDS011;5350;42.698;23.148;2023-07-02T09:57:57;5.47;;;3.30;;
10605;SDS011;5350;42.698;23.148;2023-07-02T10:00:25;4.45;;;2.72;;
10605;SDS011;5350;42.698;23.148;2023-07-02T10:02:52;5.88;;;4.13;;
10605;SDS011;5350;42.698;23.148;2023-07-02T10:05:25;4.47;;;2.40;;
10605;SDS011;5350;42.698;23.148;2023-07-02T10:07:52;3.90;;;2.90;;
10605;SDS011;5350;42.698;23.148;2023-07-02T10:10:25;3.92;;;2.92;;
10605;SDS011;5350;42.698;23.148;2023-07-02T10:12:53;4.38;;;2.50;;
10605;SDS011;5350;42.698;23.148;2023-07-02T10:15:24;5.82;;;2.75;;
10605;SDS011;5350;42.698;23.148;2023-07-02T10:17:56;2.58;;;1.98;;
10605;SDS011;5350;42.698;23.148;2023-07-02T10:20:32;4.00;;;3.10;;
10605;SDS011;5350;42.698;23.148;2023-07-02T10:23:00;4.13;;;2.72;;
10605;SDS011;5350;42.698;23.148;2023-07-02T10:25:28;4.18;;;3.00;;
10605;SDS011;5350;42.698;23.148;2023-07-02T10:27:56;3.60;;;2.75;;
10605;SDS011;5350;42.698;23.148;2023-07-02T10:30:35;5.78;;;2.70;;
10605;SDS011;5350;42.698;23.148;2023-07-02T10:33:09;3.85;;;2.90;;
10605;SDS011;5350;42.698;23.148;2023-07-02T10:35:37;3.47;;;2.67;;
10605;SDS011;5350;42.698;23.148;2023-07-02T10:38:06;4.43;;;3.10;;
10605;SDS011;5350;42.698;23.148;2023-07-02T10:40:33;2.95;;;2.75;;
10605;SDS011;5350;42.698;23.148;2023-07-02T10:43:00;3.53;;;3.20;;
10605;SDS011;5350;42.698;23.148;2023-07-02T10:45:31;4.95;;;3.22;;
10605;SDS011;5350;42.698;23.148;2023-07-02T10:48:00;3.72;;;3.03;;
10605;SDS011;5350;42.698;23.148;2023-07-02T10:50:28;4.30;;;3.17;;
10605;SDS011;5350;42.698;23.148;2023-07-02T10:52:54;5.15;;;3.15;;
10605;SDS011;5350;42.698;23.148;2023-07-02T10:55:22;5.90;;;3.35;;
10605;SDS011;5350;42.698;23.148;2023-07-02T10:57:50;3.88;;;3.20;;
10605;SDS011;5350;42.698;23.148;2023-07-02T11:00:29;3.72;;;3.40;;
10605;SDS011;5350;42.698;23.148;2023-07-02T11:03:03;3.97;;;3.60;;
10605;SDS011;5350;42.698;23.148;2023-07-02T11:05:30;4.78;;;3.58;;
10605;SDS011;5350;42.698;23.148;2023-07-02T11:08:07;4.65;;;3.95;;
10605;SDS011;5350;42.698;23.148;2023-07-02T11:10:34;4.80;;;3.72;;
10605;SDS011;5350;42.698;23.148;2023-07-02T11:13:09;5.53;;;3.25;;
10605;SDS011;5350;42.698;23.148;2023-07-02T11:15:37;10.45;;;3.85;;
10605;SDS011;5350;42.698;23.148;2023-07-02T11:18:09;3.28;;;2.65;;
10605;SDS011;5350;42.698;23.148;2023-07-02T11:20:36;4.47;;;3.33;;
10605;SDS011;5350;42.698;23.148;2023-07-02T11:23:04;3.55;;;3.25;;
10605;SDS011;5350;42.698;23.148;2023-07-02T11:25:31;3.15;;;2.55;;
10605;SDS011;5350;42.698;23.148;2023-07-02T11:28:04;3.25;;;2.35;;
10605;SDS011;5350;42.698;23.148;2023-07-02T11:30:31;2.70;;;2.22;;
10605;SDS011;5350;42.698;23.148;2023-07-02T11:32:57;2.72;;;2.30;;
10605;SDS011;5350;42.698;23.148;2023-07-02T11:35:34;2.78;;;2.47;;
10605;SDS011;5350;42.698;23.148;2023-07-02T11:38:01;4.28;;;2.40;;
10605;SDS011;5350;42.698;23.148;2023-07-02T11:40:28;3.50;;;2.72;;
10605;SDS011;5350;42.698;23.148;2023-07-02T11:42:55;3.33;;;2.80;;
10605;SDS011;5350;42.698;23.148;2023-07-02T11:45:21;2.92;;;2.50;;
10605;SDS011;5350;42.698;23.148;2023-07-02T11:47:48;4.07;;;2.65;;
10605;SDS011;5350;42.698;23.148;2023-07-02T11:50:15;4.13;;;2.88;;
10605;SDS011;5350;42.698;23.148;2023-07-02T11:52:43;3.17;;;2.88;;
10605;SDS011;5350;42.698;23.148;2023-07-02T11:55:10;3.08;;;2.78;;
10605;SDS011;5350;42.698;23.148;2023-07-02T11:57:36;3.63;;;3.17;;
10605;SDS011;5350;42.698;23.148;2023-07-02T12:00:04;4.05;;;3.03;;
10605;SDS011;5350;42.698;23.148;2023-07-02T12:02:31;3.75;;;3.40;;
10605;SDS011;5350;42.698;23.148;2023-07-02T12:04:58;3.97;;;3.50;;
10605;SDS011;5350;42.698;23.148;2023-07-02T12:07:25;5.20;;;4.07;;
10605;SDS011;5350;42.698;23.148;2023-07-02T12:09:53;4.32;;;3.92;;
10605;SDS011;5350;42.698;23.148;2023-07-02T12:12:20;4.18;;;3.78;;
10605;SDS011;5350;42.698;23.148;2023-07-02T12:14:46;5.78;;;4.07;;
10605;SDS011;5350;42.698;23.148;2023-07-02T12:17:13;5.45;;;3.95;;
10605;SDS011;5350;42.698;23.148;2023-07-02T12:19:40;4.45;;;4.05;;
10605;SDS011;5350;42.698;23.148;2023-07-02T12:22:07;5.35;;;4.60;;
10605;SDS011;5350;42.698;23.148;2023-07-02T12:24:34;6.10;;;4.78;;
10605;SDS011;5350;42.698;23.148;2023-07-02T12:27:02;7.20;;;4.38;;
10605;SDS011;5350;42.698;23.148;2023-07-02T12:29:29;5.85;;;4.13;;
10605;SDS011;5350;42.698;23.148;2023-07-02T12:31:55;5.75;;;4.35;;
10605;SDS011;5350;42.698;23.148;2023-07-02T12:34:22;4.47;;;4.07;;
10605;SDS011;5350;42.698;23.148;2023-07-02T12:36:49;4.63;;;3.90;;
10605;SDS011;5350;42.698;23.148;2023-07-02T12:39:16;4.45;;;4.05;;
10605;SDS011;5350;42.698;23.148;2023-07-02T12:41:42;5.93;;;4.95;;
10605;SDS011;5350;42.698;23.148;2023-07-02T12:44:11;4.93;;;4.43;;
10605;SDS011;5350;42.698;23.148;2023-07-02T12:46:37;6.07;;;4.80;;
10605;SDS011;5350;42.698;23.148;2023-07-02T12:49:04;5.45;;;4.95;;
10605;SDS011;5350;42.698;23.148;2023-07-02T12:51:31;5.30;;;4.80;;
10605;SDS011;5350;42.698;23.148;2023-07-02T12:53:57;5.55;;;5.03;;
10605;SDS011;5350;42.698;23.148;2023-07-02T12:56:24;6.10;;;5.05;;
10605;SDS011;5350;42.698;23.148;2023-07-02T12:58:51;5.80;;;5.20;;
10605;SDS011;5350;42.698;23.148;2023-07-02T13:01:19;6.68;;;5.15;;
10605;SDS011;5350;42.698;23.148;2023-07-02T13:03:45;6.32;;;4.95;;
10605;SDS011;5350;42.698;23.148;2023-07-02T13:06:13;8.38;;;4.95;;
10605;SDS011;5350;42.698;23.148;2023-07-02T13:08:40;6.18;;;5.35;;
10605;SDS011;5350;42.698;23.148;2023-07-02T13:11:06;5.68;;;5.10;;
10605;SDS011;5350;42.698;23.148;2023-07-02T13:13:34;5.07;;;4.57;;
10605;SDS011;5350;42.698;23.148;2023-07-02T13:16:01;5.57;;;5.07;;
10605;SDS011;5350;42.698;23.148;2023-07-02T13:18:29;4.95;;;4.55;;
10605;SDS011;5350;42.698;23.148;2023-07-02T13:20:55;5.40;;;4.90;;
10605;SDS011;5350;42.698;23.148;2023-07-02T13:23:22;6.15;;;4.88;;
10605;SDS011;5350;42.698;23.148;2023-07-02T13:25:49;6.07;;;5.13;;
10605;SDS011;5350;42.698;23.148;2023-07-02T13:28:15;5.40;;;4.45;;
10605;SDS011;5350;42.698;23.148;2023-07-02T13:30:42;5.30;;;4.78;;
10605;SDS011;5350;42.698;23.148;2023-07-02T13:33:09;5.60;;;4.90;;
10605;SDS011;5350;42.698;23.148;2023-07-02T13:35:37;5.20;;;4.70;;
10605;SDS011;5350;42.698;23.148;2023-07-02T13:38:04;8.60;;;5.53;;
10605;SDS011;5350;42.698;23.148;2023-07-02T13:40:30;6.13;;;4.75;;
10605;SDS011;5350;42.698;23.148;2023-07-02T13:42:57;6.65;;;5.50;;
10605;SDS011;5350;42.698;23.148;2023-07-02T13:45:24;5.88;;;4.65;;
10605;SDS011;5350;42.698;23.148;2023-07-02T13:47:50;9.15;;;5.50;;
10605;SDS011;5350;42.698;23.148;2023-07-02T13:50:18;6.20;;;5.60;;
10605;SDS011;5350;42.698;23.148;2023-07-02T13:52:46;7.07;;;6.00;;
10605;SDS011;5350;42.698;23.148;2023-07-02T13:55:14;5.90;;;5.30;;
10605;SDS011;5350;42.698;23.148;2023-07-02T13:57:42;7.82;;;5.57;;
10605;SDS011;5350;42.698;23.148;2023-07-02T14:00:11;9.88;;;5.85;;
10605;SDS011;5350;42.698;23.148;2023-07-02T14:02:38;7.05;;;5.57;;
10605;SDS011;5350;42.698;23.148;2023-07-02T14:05:05;7.43;;;5.38;;
10605;SDS011;5350;42.698;23.148;2023-07-02T14:07:32;8.20;;;5.82;;
10605;SDS011;5350;42.698;23.148;2023-07-02T14:09:59;5.60;;;5.03;;
10605;SDS011;5350;42.698;23.148;2023-07-02T14:12:26;7.35;;;5.18;;
10605;SDS011;5350;42.698;23.148;2023-07-02T14:14:52;10.57;;;5.63;;
10605;SDS011;5350;42.698;23.148;2023-07-02T14:17:20;6.63;;;5.25;;
10605;SDS011;5350;42.698;23.148;2023-07-02T14:19:47;6.88;;;5.47;;
10605;SDS011;5350;42.698;23.148;2023-07-02T14:22:15;8.85;;;5.90;;
10605;SDS011;5350;42.698;23.148;2023-07-02T14:24:42;8.55;;;6.30;;
10605;SDS011;5350;42.698;23.148;2023-07-02T14:27:08;6.80;;;5.47;;
10605;SDS011;5350;42.698;23.148;2023-07-02T14:29:35;7.53;;;6.40;;
10605;SDS011;5350;42.698;23.148;2023-07-02T14:32:02;6.45;;;5.63;;
10605;SDS011;5350;42.698;23.148;2023-07-02T14:34:31;6.65;;;5.93;;
10605;SDS011;5350;42.698;23.148;2023-07-02T14:36:57;7.90;;;6.78;;
10605;SDS011;5350;42.698;23.148;2023-07-02T14:39:24;8.38;;;5.55;;
10605;SDS011;5350;42.698;23.148;2023-07-02T14:41:51;6.63;;;5.85;;
10605;SDS011;5350;42.698;23.148;2023-07-02T14:44:18;6.43;;;5.72;;
10605;SDS011;5350;42.698;23.148;2023-07-02T14:46:45;6.65;;;5.88;;
10605;SDS011;5350;42.698;23.148;2023-07-02T14:49:12;7.25;;;6.25;;
10605;SDS011;5350;42.698;23.148;2023-07-02T14:51:40;9.07;;;5.90;;
10605;SDS011;5350;42.698;23.148;2023-07-02T14:54:07;6.70;;;5.78;;
10605;SDS011;5350;42.698;23.148;2023-07-02T14:56:34;6.35;;;5.70;;
10605;SDS011;5350;42.698;23.148;2023-07-02T14:59:02;8.15;;;5.88;;
10605;SDS011;5350;42.698;23.148;2023-07-02T15:01:31;6.38;;;5.38;;
10605;SDS011;5350;42.698;23.148;2023-07-02T15:03:58;6.72;;;5.40;;
10605;SDS011;5350;42.698;23.148;2023-07-02T15:06:25;8.00;;;6.55;;
10605;SDS011;5350;42.698;23.148;2023-07-02T15:08:53;6.85;;;6.15;;
10605;SDS011;5350;42.698;23.148;2023-07-02T15:11:20;6.35;;;5.75;;
10605;SDS011;5350;42.698;23.148;2023-07-02T15:13:46;5.88;;;5.30;;
10605;SDS011;5350;42.698;23.148;2023-07-02T15:16:13;7.20;;;5.30;;
10605;SDS011;5350;42.698;23.148;2023-07-02T15:18:40;6.57;;;5.95;;
10605;SDS011;5350;42.698;23.148;2023-07-02T15:21:06;6.20;;;5.60;;
10605;SDS011;5350;42.698;23.148;2023-07-02T15:23:34;6.40;;;5.68;;
10605;SDS011;5350;42.698;23.148;2023-07-02T15:26:03;7.20;;;5.97;;
10605;SDS011;5350;42.698;23.148;2023-07-02T15:28:31;7.05;;;5.72;;
10605;SDS011;5350;42.698;23.148;2023-07-02T15:31:00;6.32;;;5.72;;
10605;SDS011;5350;42.698;23.148;2023-07-02T15:33:28;7.50;;;6.32;;
10605;SDS011;5350;42.698;23.148;2023-07-02T15:35:55;7.07;;;6.32;;
10605;SDS011;5350;42.698;23.148;2023-07-02T15:38:24;6.22;;;5.47;;
10605;SDS011;5350;42.698;23.148;2023-07-02T15:40:52;6.93;;;5.63;;
10605;SDS011;5350;42.698;23.148;2023-07-02T15:43:32;7.13;;;5.95;;
10605;SDS011;5350;42.698;23.148;2023-07-02T15:45:59;6.47;;;5.50;;
10605;SDS011;5350;42.698;23.148;2023-07-02T15:48:26;9.68;;;6.00;;